sensor_id;sensor_type;location;lat;lon;timestamp;P1;P2;P0
65556;PMS3003;52200;53.490;14.376;2022-11-20T00:00:42;38.00;29.50;17.25
65556;PMS3003;52200;53.490;14.376;2022-11-20T00:03:08;43.00;33.75;18.00
65556;PMS3003;52200;53.490;14.376;2022-11-20T00:05:33;44.75;30.25;15.75
65556;PMS3003;52200;53.490;14.376;2022-11-20T00:07:58;36.25;27.50;14.00
65556;PMS3003;52200;53.490;14.376;2022-11-20T00:10:24;37.00;26.00;12.00
65556;PMS3003;52200;53.490;14.376;2022-11-20T00:12:49;28.50;22.50;12.25
65556;PMS3003;52200;53.490;14.376;2022-11-20T00:15:15;36.00;23.00;13.25
65556;PMS3003;52200;53.490;14.376;2022-11-20T00:17:40;30.50;23.00;10.25
65556;PMS3003;52200;53.490;14.376;2022-11-20T00:20:06;28.00;22.50;11.00
65556;PMS3003;52200;53.490;14.376;2022-11-20T00:22:32;28.00;21.80;12.80
65556;PMS3003;52200;53.490;14.376;2022-11-20T00:24:57;33.50;23.25;11.75
65556;PMS3003;52200;53.490;14.376;2022-11-20T00:27:23;30.75;24.25;12.25
65556;PMS3003;52200;53.490;14.376;2022-11-20T00:29:48;31.50;23.25;12.00
65556;PMS3003;52200;53.490;14.376;2022-11-20T00:32:14;35.75;25.25;12.75
65556;PMS3003;52200;53.490;14.376;2022-11-20T00:34:39;30.75;22.75;12.25
65556;PMS3003;52200;53.490;14.376;2022-11-20T00:37:05;36.75;24.25;11.00
65556;PMS3003;52200;53.490;14.376;2022-11-20T00:39:30;29.00;21.50;10.75
65556;PMS3003;52200;53.490;14.376;2022-11-20T00:41:56;29.50;21.00;11.50
65556;PMS3003;52200;53.490;14.376;2022-11-20T00:44:21;30.75;21.00;11.00
65556;PMS3003;52200;53.490;14.376;2022-11-20T00:46:47;25.75;17.75;10.25
65556;PMS3003;52200;53.490;14.376;2022-11-20T00:49:12;34.75;18.25;10.75
65556;PMS3003;52200;53.490;14.376;2022-11-20T00:51:37;25.00;17.50;11.75
65556;PMS3003;52200;53.490;14.376;2022-11-20T00:54:03;30.50;20.50;10.50
65556;PMS3003;52200;53.490;14.376;2022-11-20T00:56:28;26.50;20.75;8.00
65556;PMS3003;52200;53.490;14.376;2022-11-20T00:58:54;25.00;19.00;8.00
65556;PMS3003;52200;53.490;14.376;2022-11-20T01:01:21;25.00;17.60;8.80
65556;PMS3003;52200;53.490;14.376;2022-11-20T01:03:49;25.40;18.00;8.00
65556;PMS3003;52200;53.490;14.376;2022-11-20T01:06:18;24.00;18.00;7.00
65556;PMS3003;52200;53.490;14.376;2022-11-20T01:08:45;28.40;21.40;11.00
65556;PMS3003;52200;53.490;14.376;2022-11-20T01:11:13;28.00;22.20;9.80
65556;PMS3003;52200;53.490;14.376;2022-11-20T01:13:41;29.80;18.40;8.00
65556;PMS3003;52200;53.490;14.376;2022-11-20T01:16:14;29.00;20.00;9.80
65556;PMS3003;52200;53.490;14.376;2022-11-20T01:18:43;26.60;18.60;11.00
65556;PMS3003;52200;53.490;14.376;2022-11-20T01:21:11;28.80;18.80;7.60
65556;PMS3003;52200;53.490;14.376;2022-11-20T01:23:39;22.20;15.80;8.80
65556;PMS3003;52200;53.490;14.376;2022-11-20T01:26:08;23.60;17.60;8.80
65556;PMS3003;52200;53.490;14.376;2022-11-20T01:28:37;28.40;17.20;7.80
65556;PMS3003;52200;53.490;14.376;2022-11-20T01:31:13;28.40;22.00;11.00
65556;PMS3003;52200;53.490;14.376;2022-11-20T01:33:43;32.00;21.20;10.60
65556;PMS3003;52200;53.490;14.376;2022-11-20T01:36:10;27.40;18.80;8.40
65556;PMS3003;52200;53.490;14.376;2022-11-20T01:38:37;23.80;14.80;7.00
65556;PMS3003;52200;53.490;14.376;2022-11-20T01:41:03;24.00;17.20;8.00
65556;PMS3003;52200;53.490;14.376;2022-11-20T01:43:29;24.80;17.20;6.20
65556;PMS3003;52200;53.490;14.376;2022-11-20T01:48:33;26.00;17.80;8.00
65556;PMS3003;52200;53.490;14.376;2022-11-20T01:51:16;31.40;20.60;10.60
65556;PMS3003;52200;53.490;14.376;2022-11-20T01:53:48;25.20;16.80;9.20
65556;PMS3003;52200;53.490;14.376;2022-11-20T01:56:14;23.40;14.00;8.00
65556;PMS3003;52200;53.490;14.376;2022-11-20T01:58:42;25.40;19.00;10.20
65556;PMS3003;52200;53.490;14.376;2022-11-20T02:01:12;26.00;16.20;7.60
65556;PMS3003;52200;53.490;14.376;2022-11-20T02:03:39;29.80;18.20;10.40
65556;PMS3003;52200;53.490;14.376;2022-11-20T02:08:37;18.80;11.00;6.20
65556;PMS3003;52200;53.490;14.376;2022-11-20T02:11:03;19.60;12.60;6.80
65556;PMS3003;52200;53.490;14.376;2022-11-20T02:13:29;23.50;16.75;7.50
65556;PMS3003;52200;53.490;14.376;2022-11-20T02:16:10;17.80;11.60;7.00
65556;PMS3003;52200;53.490;14.376;2022-11-20T02:18:42;21.20;17.00;6.20
65556;PMS3003;52200;53.490;14.376;2022-11-20T02:21:14;19.60;12.20;5.00
65556;PMS3003;52200;53.490;14.376;2022-11-20T02:24:10;19.20;12.00;7.00
65556;PMS3003;52200;53.490;14.376;2022-11-20T02:26:53;17.60;12.00;5.00
65556;PMS3003;52200;53.490;14.376;2022-11-20T02:29:27;23.00;15.40;7.00
65556;PMS3003;52200;53.490;14.376;2022-11-20T02:32:00;19.60;13.60;6.60
65556;PMS3003;52200;53.490;14.376;2022-11-20T02:34:27;20.40;14.00;7.80
65556;PMS3003;52200;53.490;14.376;2022-11-20T02:36:54;22.80;14.60;5.80
65556;PMS3003;52200;53.490;14.376;2022-11-20T02:39:21;18.80;12.00;7.00
65556;PMS3003;52200;53.490;14.376;2022-11-20T02:41:49;17.60;12.20;5.40
65556;PMS3003;52200;53.490;14.376;2022-11-20T02:44:20;21.40;12.40;5.40
65556;PMS3003;52200;53.490;14.376;2022-11-20T02:46:46;18.50;13.25;5.50
65556;PMS3003;52200;53.490;14.376;2022-11-20T02:49:12;20.00;12.75;4.25
65556;PMS3003;52200;53.490;14.376;2022-11-20T02:51:37;18.50;14.25;7.00
65556;PMS3003;52200;53.490;14.376;2022-11-20T02:54:03;18.75;14.25;7.25
65556;PMS3003;52200;53.490;14.376;2022-11-20T02:56:29;21.40;14.00;6.20
65556;PMS3003;52200;53.490;14.376;2022-11-20T02:58:54;19.00;13.75;7.00
65556;PMS3003;52200;53.490;14.376;2022-11-20T03:01:20;20.40;14.00;7.00
65556;PMS3003;52200;53.490;14.376;2022-11-20T03:03:46;22.25;14.25;7.75
65556;PMS3003;52200;53.490;14.376;2022-11-20T03:06:13;27.20;16.20;7.20
65556;PMS3003;52200;53.490;14.376;2022-11-20T03:08:39;24.20;16.20;6.60
65556;PMS3003;52200;53.490;14.376;2022-11-20T03:11:05;21.00;15.00;8.00
65556;PMS3003;52200;53.490;14.376;2022-11-20T03:13:32;22.00;14.80;7.00
65556;PMS3003;52200;53.490;14.376;2022-11-20T03:15:58;24.20;14.80;7.40
65556;PMS3003;52200;53.490;14.376;2022-11-20T03:18:23;22.50;16.75;7.50
65556;PMS3003;52200;53.490;14.376;2022-11-20T03:20:49;22.00;17.75;7.00
65556;PMS3003;52200;53.490;14.376;2022-11-20T03:23:14;27.75;16.00;7.00
65556;PMS3003;52200;53.490;14.376;2022-11-20T03:25:40;21.75;16.50;7.00
65556;PMS3003;52200;53.490;14.376;2022-11-20T03:28:05;27.00;17.25;6.50
65556;PMS3003;52200;53.490;14.376;2022-11-20T03:30:31;18.25;12.75;7.00
65556;PMS3003;52200;53.490;14.376;2022-11-20T03:32:56;23.75;13.25;5.50
65556;PMS3003;52200;53.490;14.376;2022-11-20T03:35:22;19.75;15.00;8.00
65556;PMS3003;52200;53.490;14.376;2022-11-20T03:37:47;24.25;17.00;9.75
65556;PMS3003;52200;53.490;14.376;2022-11-20T03:40:13;21.80;16.20;7.00
65556;PMS3003;52200;53.490;14.376;2022-11-20T03:42:38;19.75;14.75;7.00
65556;PMS3003;52200;53.490;14.376;2022-11-20T03:45:10;20.20;14.80;6.60
65556;PMS3003;52200;53.490;14.376;2022-11-20T03:47:36;24.60;17.00;7.00
65556;PMS3003;52200;53.490;14.376;2022-11-20T03:50:02;23.50;18.00;8.00
65556;PMS3003;52200;53.490;14.376;2022-11-20T03:52:28;25.40;16.40;8.80
65556;PMS3003;52200;53.490;14.376;2022-11-20T03:54:53;20.75;14.75;7.00
65556;PMS3003;52200;53.490;14.376;2022-11-20T03:57:19;23.25;15.00;7.50
65556;PMS3003;52200;53.490;14.376;2022-11-20T03:59:44;22.00;13.50;7.00
65556;PMS3003;52200;53.490;14.376;2022-11-20T04:02:10;22.75;14.75;7.75
65556;PMS3003;52200;53.490;14.376;2022-11-20T04:04:35;19.75;15.50;7.00
65556;PMS3003;52200;53.490;14.376;2022-11-20T04:07:01;21.75;14.50;7.00
65556;PMS3003;52200;53.490;14.376;2022-11-20T04:09:27;21.40;14.00;7.00
65556;PMS3003;52200;53.490;14.376;2022-11-20T04:11:52;23.75;18.00;7.00
65556;PMS3003;52200;53.490;14.376;2022-11-20T04:14:18;17.75;13.50;7.50
65556;PMS3003;52200;53.490;14.376;2022-11-20T04:16:43;20.75;14.50;7.50
65556;PMS3003;52200;53.490;14.376;2022-11-20T04:19:10;26.25;16.00;8.00
65556;PMS3003;52200;53.490;14.376;2022-11-20T04:21:40;21.80;16.40;7.80
65556;PMS3003;52200;53.490;14.376;2022-11-20T04:24:06;22.80;16.20;8.00
65556;PMS3003;52200;53.490;14.376;2022-11-20T04:26:32;27.60;18.20;7.80
65556;PMS3003;52200;53.490;14.376;2022-11-20T04:28:59;25.80;17.00;9.60
65556;PMS3003;52200;53.490;14.376;2022-11-20T04:31:27;24.00;16.80;8.00
65556;PMS3003;52200;53.490;14.376;2022-11-20T04:33:54;22.40;12.60;6.20
65556;PMS3003;52200;53.490;14.376;2022-11-20T04:36:24;19.80;14.60;8.00
65556;PMS3003;52200;53.490;14.376;2022-11-20T04:38:51;23.00;18.00;8.20
65556;PMS3003;52200;53.490;14.376;2022-11-20T04:41:19;24.20;18.00;7.60
65556;PMS3003;52200;53.490;14.376;2022-11-20T04:43:46;23.40;18.20;8.20
65556;PMS3003;52200;53.490;14.376;2022-11-20T04:46:19;24.40;17.80;7.00
65556;PMS3003;52200;53.490;14.376;2022-11-20T04:48:46;22.20;16.20;7.40
65556;PMS3003;52200;53.490;14.376;2022-11-20T04:51:12;22.80;14.60;7.20
65556;PMS3003;52200;53.490;14.376;2022-11-20T04:53:38;22.00;15.25;7.75
65556;PMS3003;52200;53.490;14.376;2022-11-20T04:56:05;24.20;17.00;7.60
65556;PMS3003;52200;53.490;14.376;2022-11-20T04:58:32;23.80;17.80;9.60
65556;PMS3003;52200;53.490;14.376;2022-11-20T05:01:05;25.40;17.00;10.80
65556;PMS3003;52200;53.490;14.376;2022-11-20T05:03:32;27.20;20.00;9.60
65556;PMS3003;52200;53.490;14.376;2022-11-20T05:06:02;26.80;18.00;9.80
65556;PMS3003;52200;53.490;14.376;2022-11-20T05:08:29;29.80;23.20;10.20
65556;PMS3003;52200;53.490;14.376;2022-11-20T05:11:09;28.60;19.40;8.00
65556;PMS3003;52200;53.490;14.376;2022-11-20T05:13:36;19.80;14.40;7.00
65556;PMS3003;52200;53.490;14.376;2022-11-20T05:16:12;27.40;20.00;7.80
65556;PMS3003;52200;53.490;14.376;2022-11-20T05:18:39;24.20;17.20;7.80
65556;PMS3003;52200;53.490;14.376;2022-11-20T05:21:05;22.40;15.80;7.80
65556;PMS3003;52200;53.490;14.376;2022-11-20T05:23:32;27.00;19.80;8.40
65556;PMS3003;52200;53.490;14.376;2022-11-20T05:25:58;24.20;15.80;7.20
65556;PMS3003;52200;53.490;14.376;2022-11-20T05:28:25;26.20;21.40;9.60
65556;PMS3003;52200;53.490;14.376;2022-11-20T05:30:51;25.00;17.60;9.60
65556;PMS3003;52200;53.490;14.376;2022-11-20T05:33:17;21.75;16.50;8.50
65556;PMS3003;52200;53.490;14.376;2022-11-20T05:35:42;27.50;21.00;11.00
65556;PMS3003;52200;53.490;14.376;2022-11-20T05:38:08;32.60;21.60;11.00
65556;PMS3003;52200;53.490;14.376;2022-11-20T05:40:35;27.60;18.80;9.80
65556;PMS3003;52200;53.490;14.376;2022-11-20T05:43:00;29.20;20.40;10.20
65556;PMS3003;52200;53.490;14.376;2022-11-20T05:45:26;35.75;26.75;15.00
65556;PMS3003;52200;53.490;14.376;2022-11-20T05:47:52;28.20;21.00;9.80
65556;PMS3003;52200;53.490;14.376;2022-11-20T05:50:18;30.20;18.20;8.00
65556;PMS3003;52200;53.490;14.376;2022-11-20T05:52:43;29.25;19.00;8.75
65556;PMS3003;52200;53.490;14.376;2022-11-20T05:55:09;28.25;19.25;10.00
65556;PMS3003;52200;53.490;14.376;2022-11-20T05:57:34;24.50;18.25;8.00
65556;PMS3003;52200;53.490;14.376;2022-11-20T06:00:00;27.00;19.50;9.50
65556;PMS3003;52200;53.490;14.376;2022-11-20T06:02:26;31.50;21.50;10.00
65556;PMS3003;52200;53.490;14.376;2022-11-20T06:04:51;30.25;18.00;8.00
65556;PMS3003;52200;53.490;14.376;2022-11-20T06:07:17;27.75;18.00;7.75
65556;PMS3003;52200;53.490;14.376;2022-11-20T06:09:42;27.50;21.50;10.00
65556;PMS3003;52200;53.490;14.376;2022-11-20T06:12:07;28.25;23.00;9.00
65556;PMS3003;52200;53.490;14.376;2022-11-20T06:14:33;29.25;21.50;9.50
65556;PMS3003;52200;53.490;14.376;2022-11-20T06:16:59;28.75;22.00;10.25
65556;PMS3003;52200;53.490;14.376;2022-11-20T06:19:25;29.40;20.40;7.20
65556;PMS3003;52200;53.490;14.376;2022-11-20T06:21:50;27.25;21.00;8.50
65556;PMS3003;52200;53.490;14.376;2022-11-20T06:24:16;25.00;20.00;7.75
65556;PMS3003;52200;53.490;14.376;2022-11-20T06:26:42;30.40;22.40;9.40
65556;PMS3003;52200;53.490;14.376;2022-11-20T06:29:07;27.25;19.75;11.00
65556;PMS3003;52200;53.490;14.376;2022-11-20T06:31:33;27.50;19.50;10.00
65556;PMS3003;52200;53.490;14.376;2022-11-20T06:34:02;30.80;18.80;9.60
65556;PMS3003;52200;53.490;14.376;2022-11-20T06:36:28;29.00;21.00;9.20
65556;PMS3003;52200;53.490;14.376;2022-11-20T06:38:53;26.00;18.00;8.00
65556;PMS3003;52200;53.490;14.376;2022-11-20T06:41:20;23.00;17.25;8.00
65556;PMS3003;52200;53.490;14.376;2022-11-20T06:43:46;26.20;18.80;9.80
65556;PMS3003;52200;53.490;14.376;2022-11-20T06:46:12;25.80;17.80;10.00
65556;PMS3003;52200;53.490;14.376;2022-11-20T06:48:40;26.20;18.00;9.80
65556;PMS3003;52200;53.490;14.376;2022-11-20T06:51:06;29.20;21.40;8.80
65556;PMS3003;52200;53.490;14.376;2022-11-20T06:53:33;24.60;20.00;10.80
65556;PMS3003;52200;53.490;14.376;2022-11-20T06:55:59;27.80;20.60;8.20
65556;PMS3003;52200;53.490;14.376;2022-11-20T06:58:26;29.75;22.75;10.50
65556;PMS3003;52200;53.490;14.376;2022-11-20T07:00:52;31.20;22.80;11.00
65556;PMS3003;52200;53.490;14.376;2022-11-20T07:03:18;30.75;21.75;11.75
65556;PMS3003;52200;53.490;14.376;2022-11-20T07:05:44;29.50;21.25;12.25
65556;PMS3003;52200;53.490;14.376;2022-11-20T07:08:11;30.40;24.00;11.00
65556;PMS3003;52200;53.490;14.376;2022-11-20T07:10:37;27.60;18.80;9.80
65556;PMS3003;52200;53.490;14.376;2022-11-20T07:13:03;25.25;17.25;10.00
65556;PMS3003;52200;53.490;14.376;2022-11-20T07:15:28;30.00;20.25;10.75
65556;PMS3003;52200;53.490;14.376;2022-11-20T07:17:54;24.50;20.50;10.00
65556;PMS3003;52200;53.490;14.376;2022-11-20T07:20:19;31.25;19.50;11.50
65556;PMS3003;52200;53.490;14.376;2022-11-20T07:22:45;25.50;17.25;8.00
65556;PMS3003;52200;53.490;14.376;2022-11-20T07:25:10;36.75;23.00;10.00
65556;PMS3003;52200;53.490;14.376;2022-11-20T07:27:36;30.25;22.00;10.00
65556;PMS3003;52200;53.490;14.376;2022-11-20T07:30:02;29.50;22.00;10.00
65556;PMS3003;52200;53.490;14.376;2022-11-20T07:32:28;33.20;22.20;9.80
65556;PMS3003;52200;53.490;14.376;2022-11-20T07:34:54;24.75;20.75;11.00
65556;PMS3003;52200;53.490;14.376;2022-11-20T07:37:20;32.00;21.25;10.50
65556;PMS3003;52200;53.490;14.376;2022-11-20T07:39:45;22.80;17.00;9.80
65556;PMS3003;52200;53.490;14.376;2022-11-20T07:42:11;28.50;21.00;11.00
65556;PMS3003;52200;53.490;14.376;2022-11-20T07:44:37;37.20;26.40;11.40
65556;PMS3003;52200;53.490;14.376;2022-11-20T07:47:03;30.60;21.40;10.80
65556;PMS3003;52200;53.490;14.376;2022-11-20T07:49:29;31.00;25.00;12.60
65556;PMS3003;52200;53.490;14.376;2022-11-20T07:51:55;32.00;21.50;11.00
65556;PMS3003;52200;53.490;14.376;2022-11-20T07:54:21;31.75;23.25;10.75
65556;PMS3003;52200;53.490;14.376;2022-11-20T07:56:47;35.20;22.00;9.60
65556;PMS3003;52200;53.490;14.376;2022-11-20T07:59:13;30.80;21.20;9.80
65556;PMS3003;52200;53.490;14.376;2022-11-20T08:01:40;30.60;21.20;10.40
65556;PMS3003;52200;53.490;14.376;2022-11-20T08:04:06;31.80;22.60;11.20
65556;PMS3003;52200;53.490;14.376;2022-11-20T08:06:32;30.00;23.75;11.75
65556;PMS3003;52200;53.490;14.376;2022-11-20T08:08:57;29.25;24.00;11.00
65556;PMS3003;52200;53.490;14.376;2022-11-20T08:11:23;32.50;24.00;12.00
65556;PMS3003;52200;53.490;14.376;2022-11-20T08:14:07;32.80;21.20;13.60
65556;PMS3003;52200;53.490;14.376;2022-11-20T08:16:38;34.40;23.20;11.00
65556;PMS3003;52200;53.490;14.376;2022-11-20T08:19:05;32.20;21.80;12.00
65556;PMS3003;52200;53.490;14.376;2022-11-20T08:21:30;37.00;25.00;12.00
65556;PMS3003;52200;53.490;14.376;2022-11-20T08:23:56;32.75;27.25;13.75
65556;PMS3003;52200;53.490;14.376;2022-11-20T08:26:22;33.00;23.60;10.40
65556;PMS3003;52200;53.490;14.376;2022-11-20T08:28:48;35.40;27.40;12.20
65556;PMS3003;52200;53.490;14.376;2022-11-20T08:31:17;29.60;24.00;13.80
65556;PMS3003;52200;53.490;14.376;2022-11-20T08:33:43;33.50;26.25;15.00
65556;PMS3003;52200;53.490;14.376;2022-11-20T08:36:08;38.00;28.50;15.75
65556;PMS3003;52200;53.490;14.376;2022-11-20T08:38:34;39.75;31.75;17.75
65556;PMS3003;52200;53.490;14.376;2022-11-20T08:41:00;46.00;34.25;17.25
65556;PMS3003;52200;53.490;14.376;2022-11-20T08:43:45;59.20;45.00;25.60
65556;PMS3003;52200;53.490;14.376;2022-11-20T08:46:10;47.00;35.00;19.50
65556;PMS3003;52200;53.490;14.376;2022-11-20T08:48:36;38.75;31.25;15.50
65556;PMS3003;52200;53.490;14.376;2022-11-20T08:51:02;44.25;32.25;16.50
65556;PMS3003;52200;53.490;14.376;2022-11-20T08:53:27;41.75;32.25;15.25
65556;PMS3003;52200;53.490;14.376;2022-11-20T08:55:53;49.75;35.00;17.50
65556;PMS3003;52200;53.490;14.376;2022-11-20T08:58:18;39.00;29.75;16.25
65556;PMS3003;52200;53.490;14.376;2022-11-20T09:00:44;36.75;30.75;15.50
65556;PMS3003;52200;53.490;14.376;2022-11-20T09:03:09;39.25;31.00;17.50
65556;PMS3003;52200;53.490;14.376;2022-11-20T09:05:35;32.50;26.00;15.00
65556;PMS3003;52200;53.490;14.376;2022-11-20T09:08:00;32.50;25.50;15.00
65556;PMS3003;52200;53.490;14.376;2022-11-20T09:10:26;41.00;32.00;15.25
65556;PMS3003;52200;53.490;14.376;2022-11-20T09:12:52;35.40;28.80;15.00
65556;PMS3003;52200;53.490;14.376;2022-11-20T09:15:20;37.40;29.40;14.00
65556;PMS3003;52200;53.490;14.376;2022-11-20T09:17:56;37.20;30.40;16.20
65556;PMS3003;52200;53.490;14.376;2022-11-20T09:20:25;38.20;31.00;18.00
65556;PMS3003;52200;53.490;14.376;2022-11-20T09:22:53;42.00;32.20;15.20
65556;PMS3003;52200;53.490;14.376;2022-11-20T09:25:19;40.00;30.80;16.00
65556;PMS3003;52200;53.490;14.376;2022-11-20T09:27:45;42.40;32.80;14.80
65556;PMS3003;52200;53.490;14.376;2022-11-20T09:30:11;39.50;30.25;15.25
65556;PMS3003;52200;53.490;14.376;2022-11-20T09:32:41;38.20;29.60;15.60
65556;PMS3003;52200;53.490;14.376;2022-11-20T09:35:07;40.40;30.00;17.40
65556;PMS3003;52200;53.490;14.376;2022-11-20T09:37:33;37.60;23.80;13.80
65556;PMS3003;52200;53.490;14.376;2022-11-20T09:39:59;33.00;26.25;17.50
65556;PMS3003;52200;53.490;14.376;2022-11-20T09:49:21;36.80;32.40;18.00
65556;PMS3003;52200;53.490;14.376;2022-11-20T09:56:41;40.60;30.80;17.00
65556;PMS3003;52200;53.490;14.376;2022-11-20T10:02:26;42.20;30.80;17.00
65556;PMS3003;52200;53.490;14.376;2022-11-20T10:10:47;40.00;29.60;16.00
65556;PMS3003;52200;53.490;14.376;2022-11-20T10:17:08;44.40;32.60;15.80
65556;PMS3003;52200;53.490;14.376;2022-11-20T10:24:56;34.20;26.60;13.00
65556;PMS3003;52200;53.490;14.376;2022-11-20T10:27:36;35.20;28.80;18.60
65556;PMS3003;52200;53.490;14.376;2022-11-20T10:30:12;39.60;31.00;17.60
65556;PMS3003;52200;53.490;14.376;2022-11-20T10:32:45;39.00;27.00;16.00
65556;PMS3003;52200;53.490;14.376;2022-11-20T10:35:20;36.00;27.60;16.00
65556;PMS3003;52200;53.490;14.376;2022-11-20T10:37:48;32.20;24.40;13.60
65556;PMS3003;52200;53.490;14.376;2022-11-20T10:40:25;37.20;30.20;18.80
65556;PMS3003;52200;53.490;14.376;2022-11-20T10:43:02;31.40;23.00;13.60
65556;PMS3003;52200;53.490;14.376;2022-11-20T10:48:24;39.00;30.00;15.60
65556;PMS3003;52200;53.490;14.376;2022-11-20T10:55:54;38.00;27.50;14.25
65556;PMS3003;52200;53.490;14.376;2022-11-20T11:01:03;37.40;26.20;15.80
65556;PMS3003;52200;53.490;14.376;2022-11-20T11:03:30;36.20;28.40;16.00
65556;PMS3003;52200;53.490;14.376;2022-11-20T11:05:59;40.20;30.20;14.60
65556;PMS3003;52200;53.490;14.376;2022-11-20T11:08:35;36.40;28.00;15.00
65556;PMS3003;52200;53.490;14.376;2022-11-20T11:14:07;44.00;34.60;16.00
65556;PMS3003;52200;53.490;14.376;2022-11-20T11:19:16;42.40;32.00;16.00
65556;PMS3003;52200;53.490;14.376;2022-11-20T11:22:16;44.00;36.00;19.00
65556;PMS3003;52200;53.490;14.376;2022-11-20T11:24:43;34.80;28.20;14.20
65556;PMS3003;52200;53.490;14.376;2022-11-20T11:27:17;37.80;28.40;15.60
65556;PMS3003;52200;53.490;14.376;2022-11-20T11:29:43;39.50;31.75;17.00
65556;PMS3003;52200;53.490;14.376;2022-11-20T11:32:13;33.60;29.00;16.80
65556;PMS3003;52200;53.490;14.376;2022-11-20T11:34:42;41.20;35.60;17.20
65556;PMS3003;52200;53.490;14.376;2022-11-20T11:37:13;37.25;31.00;17.75
65556;PMS3003;52200;53.490;14.376;2022-11-20T11:39:46;38.20;29.00;18.40
65556;PMS3003;52200;53.490;14.376;2022-11-20T11:42:15;42.20;33.20;19.00
65556;PMS3003;52200;53.490;14.376;2022-11-20T11:44:44;43.80;33.80;17.40
65556;PMS3003;52200;53.490;14.376;2022-11-20T11:48:03;40.20;31.60;18.80
65556;PMS3003;52200;53.490;14.376;2022-11-20T11:50:24;36.80;30.40;17.00
65556;PMS3003;52200;53.490;14.376;2022-11-20T12:00:58;46.20;37.00;20.40
65556;PMS3003;52200;53.490;14.376;2022-11-20T12:03:36;46.60;31.80;17.60
65556;PMS3003;52200;53.490;14.376;2022-11-20T12:06:05;46.00;38.80;17.20
65556;PMS3003;52200;53.490;14.376;2022-11-20T12:14:39;41.20;32.40;18.00
65556;PMS3003;52200;53.490;14.376;2022-11-20T12:17:09;43.80;34.80;18.40
65556;PMS3003;52200;53.490;14.376;2022-11-20T12:19:37;59.00;42.20;22.00
65556;PMS3003;52200;53.490;14.376;2022-11-20T12:22:05;55.50;39.75;22.00
65556;PMS3003;52200;53.490;14.376;2022-11-20T12:24:44;47.00;36.00;19.80
65556;PMS3003;52200;53.490;14.376;2022-11-20T12:27:48;38.40;30.80;18.20
65556;PMS3003;52200;53.490;14.376;2022-11-20T12:30:28;50.00;38.40;20.60
65556;PMS3003;52200;53.490;14.376;2022-11-20T12:35:53;46.80;38.60;19.00
65556;PMS3003;52200;53.490;14.376;2022-11-20T12:44:45;44.00;38.40;18.80
65556;PMS3003;52200;53.490;14.376;2022-11-20T12:47:51;48.00;38.80;19.60
65556;PMS3003;52200;53.490;14.376;2022-11-20T13:01:31;50.20;39.80;20.60
65556;PMS3003;52200;53.490;14.376;2022-11-20T13:04:31;53.00;42.00;22.80
65556;PMS3003;52200;53.490;14.376;2022-11-20T13:06:51;64.80;45.20;25.20
65556;PMS3003;52200;53.490;14.376;2022-11-20T13:09:19;46.75;40.25;23.25
65556;PMS3003;52200;53.490;14.376;2022-11-20T13:12:06;50.60;39.80;23.60
65556;PMS3003;52200;53.490;14.376;2022-11-20T13:14:38;53.60;42.00;22.40
65556;PMS3003;52200;53.490;14.376;2022-11-20T13:20:04;49.60;41.20;22.00
65556;PMS3003;52200;53.490;14.376;2022-11-20T13:25:24;50.20;34.20;21.00
65556;PMS3003;52200;53.490;14.376;2022-11-20T13:27:50;43.60;38.80;20.80
65556;PMS3003;52200;53.490;14.376;2022-11-20T13:30:17;52.80;41.20;22.80
65556;PMS3003;52200;53.490;14.376;2022-11-20T13:35:26;41.60;32.80;18.40
65556;PMS3003;52200;53.490;14.376;2022-11-20T13:38:00;47.00;36.40;18.40
65556;PMS3003;52200;53.490;14.376;2022-11-20T13:40:28;44.80;38.60;19.20
65556;PMS3003;52200;53.490;14.376;2022-11-20T13:45:23;51.25;42.50;21.75
65556;PMS3003;52200;53.490;14.376;2022-11-20T13:47:51;49.80;41.00;21.00
65556;PMS3003;52200;53.490;14.376;2022-11-20T13:50:19;50.60;39.40;19.60
65556;PMS3003;52200;53.490;14.376;2022-11-20T13:55:36;51.20;42.00;22.80
65556;PMS3003;52200;53.490;14.376;2022-11-20T14:01:17;51.80;41.00;24.20
65556;PMS3003;52200;53.490;14.376;2022-11-20T14:03:46;51.60;42.00;26.20
65556;PMS3003;52200;53.490;14.376;2022-11-20T14:08:58;72.60;52.60;32.00
65556;PMS3003;52200;53.490;14.376;2022-11-20T14:11:26;57.60;43.60;23.80
65556;PMS3003;52200;53.490;14.376;2022-11-20T14:14:02;49.00;33.40;20.80
65556;PMS3003;52200;53.490;14.376;2022-11-20T14:16:31;40.20;31.60;18.00
65556;PMS3003;52200;53.490;14.376;2022-11-20T14:19:17;54.00;41.20;24.20
65556;PMS3003;52200;53.490;14.376;2022-11-20T14:21:44;51.20;34.20;22.40
65556;PMS3003;52200;53.490;14.376;2022-11-20T14:24:10;46.20;36.00;19.60
65556;PMS3003;52200;53.490;14.376;2022-11-20T14:26:46;52.20;37.80;19.20
65556;PMS3003;52200;53.490;14.376;2022-11-20T14:29:16;45.60;37.00;17.80
65556;PMS3003;52200;53.490;14.376;2022-11-20T14:31:44;43.20;29.20;17.60
65556;PMS3003;52200;53.490;14.376;2022-11-20T14:34:15;45.60;34.60;19.60
65556;PMS3003;52200;53.490;14.376;2022-11-20T14:36:47;43.40;36.00;20.60
65556;PMS3003;52200;53.490;14.376;2022-11-20T14:39:20;39.40;30.40;17.80
65556;PMS3003;52200;53.490;14.376;2022-11-20T14:41:52;45.60;31.60;18.00
65556;PMS3003;52200;53.490;14.376;2022-11-20T14:44:20;46.60;33.80;16.00
65556;PMS3003;52200;53.490;14.376;2022-11-20T14:46:56;42.80;33.40;17.20
65556;PMS3003;52200;53.490;14.376;2022-11-20T14:49:25;43.60;34.80;18.00
65556;PMS3003;52200;53.490;14.376;2022-11-20T14:52:00;37.40;30.60;17.40
65556;PMS3003;52200;53.490;14.376;2022-11-20T14:54:28;43.20;34.20;17.40
65556;PMS3003;52200;53.490;14.376;2022-11-20T14:57:02;41.80;33.20;17.40
65556;PMS3003;52200;53.490;14.376;2022-11-20T14:59:30;42.60;32.80;18.00
65556;PMS3003;52200;53.490;14.376;2022-11-20T15:01:58;47.40;35.00;19.80
65556;PMS3003;52200;53.490;14.376;2022-11-20T15:04:25;40.80;31.80;17.40
65556;PMS3003;52200;53.490;14.376;2022-11-20T15:06:52;41.00;35.00;17.75
65556;PMS3003;52200;53.490;14.376;2022-11-20T15:09:19;49.00;39.80;21.00
65556;PMS3003;52200;53.490;14.376;2022-11-20T15:11:52;46.60;36.00;18.60
65556;PMS3003;52200;53.490;14.376;2022-11-20T15:14:20;52.20;39.80;20.60
65556;PMS3003;52200;53.490;14.376;2022-11-20T15:16:46;51.60;42.40;18.20
65556;PMS3003;52200;53.490;14.376;2022-11-20T15:19:15;49.25;35.00;20.75
65556;PMS3003;52200;53.490;14.376;2022-11-20T15:21:43;44.40;33.40;19.80
65556;PMS3003;52200;53.490;14.376;2022-11-20T15:24:08;43.00;35.75;17.75
65556;PMS3003;52200;53.490;14.376;2022-11-20T15:26:34;38.80;32.20;17.80
65556;PMS3003;52200;53.490;14.376;2022-11-20T15:29:02;48.60;34.40;18.00
65556;PMS3003;52200;53.490;14.376;2022-11-20T15:31:29;43.20;29.40;15.20